This is the latest recevied weather packets stored in our database for station/object KB1JL-13. If no packets are shown the sender has not sent any weather packets the latest 1 day(s).
| Time | Temp. | Humidity | Pressure | Rain* | Wind** | Luminosity | Snow |
|---|---|---|---|---|---|---|---|
| 1836274744 | 16.11° C | 73% | 1031.5 hPa | 0 mm | 0.45 m/s, 81° | 0 W/m² | - |
| 1836274442 | 16.11° C | 72% | 1031.5 hPa | 0 mm | 0 m/s | 0 W/m² | - |
| 1836274295 | 16.67° C | 72% | 1031.5 hPa | 0 mm | 0.45 m/s, 30° | 0 W/m² | - |
| 1836274140 | 16.11° C | 71% | 1031.5 hPa | 0 mm | 0 m/s | 0 W/m² | - |
| 1778055387 | 12.78° C | 95% | 1022.2 hPa | 0 mm | 0.89 m/s, 185° | 0 W/m² | - |
| 1778055084 | 12.78° C | 95% | 1021.9 hPa | 0 mm | 0.89 m/s, 207° | 0 W/m² | - |
| 1778054782 | 12.78° C | 95% | 1022.2 hPa | 0 mm | 1.79 m/s, 177° | 0 W/m² | - |
| 1778054478 | 13.33° C | 95% | 1022.6 hPa | 0 mm | 0.89 m/s, 142° | 0 W/m² | - |
| 1778054176 | 13.33° C | 94% | 1022.2 hPa | 0 mm | 2.68 m/s, 188° | 0 W/m² | - |
| 1778053872 | 13.33° C | 94% | 1022.6 hPa | 0 mm | 0.89 m/s, 118° | 0 W/m² | - |
| 1778053570 | 13.33° C | 94% | 1022.2 hPa | 0 mm | 0.89 m/s, 181° | 0 W/m² | - |
| 1778053267 | 13.33° C | 94% | 1022.6 hPa | 0 mm | 1.34 m/s, 199° | 0 W/m² | - |
| 1778052965 | 13.33° C | 94% | 1022.2 hPa | 0 mm | 1.79 m/s, 210° | 0 W/m² | - |
| 1778052662 | 13.33° C | 93% | 1022.2 hPa | 0 mm | 1.79 m/s, 159° | 0 W/m² | - |
| 1778052358 | 13.33° C | 93% | 1022.2 hPa | 0 mm | 1.34 m/s, 161° | 0 W/m² | - |
| 1778052057 | 13.33° C | 93% | 1022.6 hPa | 0 mm | 0.45 m/s, 130° | 0 W/m² | - |
| 1778051754 | 13.89° C | 93% | 1022.6 hPa | 0 mm | 1.34 m/s, 161° | 0 W/m² | - |
| 1778051451 | 13.89° C | 92% | 1022.6 hPa | 0 mm | 0.89 m/s, 180° | 0 W/m² | - |
| 1778051148 | 13.89° C | 92% | 1022.6 hPa | 0 mm | 1.34 m/s, 163° | 0 W/m² | - |
| 1778050845 | 13.89° C | 92% | 1022.2 hPa | 0 mm | 1.34 m/s, 176° | 0 W/m² | - |
| 1778050543 | 13.89° C | 92% | 1022.2 hPa | 0 mm | 1.34 m/s, 122° | 0 W/m² | - |
| 1778050240 | 13.89° C | 92% | 1022.2 hPa | 0 mm | 1.34 m/s, 183° | 0 W/m² | - |
| 1778049937 | 13.89° C | 92% | 1022.2 hPa | 0 mm | 1.34 m/s, 185° | 0 W/m² | - |
| 1778049642 | 13.89° C | 91% | 1022.2 hPa | 0 mm | 0.89 m/s, 262° | 0 W/m² | - |
| 1778049331 | 13.89° C | 91% | 1021.9 hPa | 0 mm | 1.79 m/s, 174° | 0 W/m² | - |
* Rain latest hour (hover to see other rain measurements)
** Current wind speed in m/s (hover to see current wind gust speed)